sensor_id;sensor_type;location;lat;lon;timestamp;pressure;altitude;pressure_sealevel;temperature;humidity
49463;BME280;35357;51.722;0.500;2022-08-01T00:00:53;101635.87;;;20.58;65.86
49463;BME280;35357;51.722;0.500;2022-08-01T00:03:20;101640.08;;;20.77;66.30
49463;BME280;35357;51.722;0.500;2022-08-01T00:05:48;101640.09;;;20.45;67.20
49463;BME280;35357;51.722;0.500;2022-08-01T00:08:16;101640.51;;;20.71;66.50
49463;BME280;35357;51.722;0.500;2022-08-01T00:10:43;101642.11;;;20.12;67.26
49463;BME280;35357;51.722;0.500;2022-08-01T00:13:11;101639.69;;;20.39;66.40
49463;BME280;35357;51.722;0.500;2022-08-01T00:15:38;101637.45;;;20.08;68.23
49463;BME280;35357;51.722;0.500;2022-08-01T00:18:05;101645.34;;;19.95;67.26
49463;BME280;35357;51.722;0.500;2022-08-01T00:20:32;101641.37;;;20.63;65.92
49463;BME280;35357;51.722;0.500;2022-08-01T00:22:59;101631.94;;;19.82;68.37
49463;BME280;35357;51.722;0.500;2022-08-01T00:25:28;101639.82;;;20.46;66.65
49463;BME280;35357;51.722;0.500;2022-08-01T00:27:56;101638.73;;;20.19;67.31
49463;BME280;35357;51.722;0.500;2022-08-01T00:30:23;101640.26;;;20.29;66.62
49463;BME280;35357;51.722;0.500;2022-08-01T00:32:50;101639.53;;;20.52;66.27
49463;BME280;35357;51.722;0.500;2022-08-01T00:35:17;101634.12;;;20.50;66.37
49463;BME280;35357;51.722;0.500;2022-08-01T00:37:44;101628.67;;;19.66;68.52
49463;BME280;35357;51.722;0.500;2022-08-01T00:40:12;101634.71;;;20.20;67.11
49463;BME280;35357;51.722;0.500;2022-08-01T00:42:40;101631.98;;;20.24;67.10
49463;BME280;35357;51.722;0.500;2022-08-01T00:45:08;101634.78;;;20.29;66.96
49463;BME280;35357;51.722;0.500;2022-08-01T00:47:36;101638.99;;;20.49;65.87
49463;BME280;35357;51.722;0.500;2022-08-01T00:50:05;66588.06;;;13.82;81.20
49463;BME280;35357;51.722;0.500;2022-08-01T00:52:33;101639.62;;;20.22;65.77
49463;BME280;35357;51.722;0.500;2022-08-01T00:55:01;101639.18;;;20.18;67.20
49463;BME280;35357;51.722;0.500;2022-08-01T00:57:28;101636.09;;;20.15;67.47
49463;BME280;35357;51.722;0.500;2022-08-01T00:59:56;101628.58;;;20.10;68.44
49463;BME280;35357;51.722;0.500;2022-08-01T01:02:23;101625.53;;;19.77;68.22
49463;BME280;35357;51.722;0.500;2022-08-01T01:04:51;101626.81;;;19.50;70.30
49463;BME280;35357;51.722;0.500;2022-08-01T01:07:23;101625.91;;;19.72;69.26
49463;BME280;35357;51.722;0.500;2022-08-01T01:09:58;101627.71;;;19.80;69.13
49463;BME280;35357;51.722;0.500;2022-08-01T01:12:31;101633.48;;;19.27;70.50
49463;BME280;35357;51.722;0.500;2022-08-01T01:15:04;101637.44;;;19.64;69.23
49463;BME280;35357;51.722;0.500;2022-08-01T01:17:39;101646.78;;;19.66;68.65
49463;BME280;35357;51.722;0.500;2022-08-01T01:20:13;101655.32;;;19.54;67.97
49463;BME280;35357;51.722;0.500;2022-08-01T01:22:53;101655.05;;;19.85;68.06
49463;BME280;35357;51.722;0.500;2022-08-01T01:25:36;101656.43;;;19.73;68.32
49463;BME280;35357;51.722;0.500;2022-08-01T01:28:12;101656.53;;;19.76;68.58
49463;BME280;35357;51.722;0.500;2022-08-01T01:30:44;101649.32;;;19.96;67.76
49463;BME280;35357;51.722;0.500;2022-08-01T01:33:14;101653.78;;;20.22;66.61
49463;BME280;35357;51.722;0.500;2022-08-01T01:35:46;101657.14;;;20.03;66.40
49463;BME280;35357;51.722;0.500;2022-08-01T01:38:18;101653.82;;;20.43;65.79
49463;BME280;35357;51.722;0.500;2022-08-01T01:40:49;101651.76;;;20.53;65.21
49463;BME280;35357;51.722;0.500;2022-08-01T01:43:18;101652.44;;;20.20;65.62
49463;BME280;35357;51.722;0.500;2022-08-01T01:45:47;101648.17;;;20.17;65.49
49463;BME280;35357;51.722;0.500;2022-08-01T01:48:17;101649.52;;;20.43;65.53
49463;BME280;35357;51.722;0.500;2022-08-01T01:50:47;101649.56;;;20.36;65.33
49463;BME280;35357;51.722;0.500;2022-08-01T01:53:17;101650.65;;;20.31;66.00
49463;BME280;35357;51.722;0.500;2022-08-01T01:55:48;101651.51;;;20.15;66.00
49463;BME280;35357;51.722;0.500;2022-08-01T01:58:17;101646.53;;;20.09;66.69
49463;BME280;35357;51.722;0.500;2022-08-01T02:00:47;101647.06;;;20.13;66.41
49463;BME280;35357;51.722;0.500;2022-08-01T02:03:18;101648.60;;;20.23;65.89
49463;BME280;35357;51.722;0.500;2022-08-01T02:05:46;101645.61;;;20.09;66.13
49463;BME280;35357;51.722;0.500;2022-08-01T02:08:15;101642.34;;;19.89;66.62
49463;BME280;35357;51.722;0.500;2022-08-01T02:10:44;101638.25;;;19.69;67.01
49463;BME280;35357;51.722;0.500;2022-08-01T02:13:12;101635.64;;;19.90;66.17
49463;BME280;35357;51.722;0.500;2022-08-01T02:15:39;101636.74;;;19.50;67.30
49463;BME280;35357;51.722;0.500;2022-08-01T02:18:08;101637.48;;;19.70;66.76
49463;BME280;35357;51.722;0.500;2022-08-01T02:20:37;101635.21;;;19.58;68.23
49463;BME280;35357;51.722;0.500;2022-08-01T02:23:11;101635.09;;;19.72;68.59
49463;BME280;35357;51.722;0.500;2022-08-01T02:25:42;101635.20;;;19.52;68.70
49463;BME280;35357;51.722;0.500;2022-08-01T02:28:15;101637.23;;;19.86;68.05
49463;BME280;35357;51.722;0.500;2022-08-01T02:30:47;101631.92;;;19.52;68.45
49463;BME280;35357;51.722;0.500;2022-08-01T02:33:18;101628.07;;;19.57;69.05
49463;BME280;35357;51.722;0.500;2022-08-01T02:35:49;101625.30;;;18.55;72.23
49463;BME280;35357;51.722;0.500;2022-08-01T02:38:18;101629.92;;;18.71;72.13
49463;BME280;35357;51.722;0.500;2022-08-01T02:40:51;101630.60;;;18.66;71.81
49463;BME280;35357;51.722;0.500;2022-08-01T02:43:22;101630.77;;;19.25;70.81
49463;BME280;35357;51.722;0.500;2022-08-01T02:45:53;101636.68;;;19.17;71.18
49463;BME280;35357;51.722;0.500;2022-08-01T02:48:22;101635.24;;;19.50;69.94
49463;BME280;35357;51.722;0.500;2022-08-01T02:50:52;101631.99;;;19.40;69.74
49463;BME280;35357;51.722;0.500;2022-08-01T02:53:24;101627.86;;;18.94;70.77
49463;BME280;35357;51.722;0.500;2022-08-01T02:55:52;101623.68;;;19.02;70.38
49463;BME280;35357;51.722;0.500;2022-08-01T02:58:21;101622.62;;;19.32;70.15
49463;BME280;35357;51.722;0.500;2022-08-01T03:00:49;101622.83;;;19.64;69.38
49463;BME280;35357;51.722;0.500;2022-08-01T03:03:18;101620.44;;;19.87;68.37
49463;BME280;35357;51.722;0.500;2022-08-01T03:05:46;101617.61;;;19.64;68.85
49463;BME280;35357;51.722;0.500;2022-08-01T03:08:15;101616.99;;;18.40;73.56
49463;BME280;35357;51.722;0.500;2022-08-01T03:10:45;101618.66;;;18.27;74.80
49463;BME280;35357;51.722;0.500;2022-08-01T03:13:14;101616.49;;;18.48;73.97
49463;BME280;35357;51.722;0.500;2022-08-01T03:15:43;101615.74;;;18.67;72.36
49463;BME280;35357;51.722;0.500;2022-08-01T03:18:12;101617.13;;;18.56;72.59
49463;BME280;35357;51.722;0.500;2022-08-01T03:20:40;101620.92;;;18.91;71.16
49463;BME280;35357;51.722;0.500;2022-08-01T03:23:10;101612.73;;;19.10;70.28
49463;BME280;35357;51.722;0.500;2022-08-01T03:25:40;101611.73;;;18.80;70.42
49463;BME280;35357;51.722;0.500;2022-08-01T03:28:10;101611.04;;;19.03;70.82
49463;BME280;35357;51.722;0.500;2022-08-01T03:30:40;101608.73;;;18.35;73.80
49463;BME280;35357;51.722;0.500;2022-08-01T03:33:09;101612.98;;;18.38;72.11
49463;BME280;35357;51.722;0.500;2022-08-01T03:35:39;101612.70;;;18.60;72.50
49463;BME280;35357;51.722;0.500;2022-08-01T03:38:10;101610.21;;;18.44;73.55
49463;BME280;35357;51.722;0.500;2022-08-01T03:40:43;101611.14;;;18.31;73.93
49463;BME280;35357;51.722;0.500;2022-08-01T03:43:16;101611.14;;;18.04;72.74
49463;BME280;35357;51.722;0.500;2022-08-01T03:45:49;101610.16;;;18.46;71.73
49463;BME280;35357;51.722;0.500;2022-08-01T03:48:19;101611.94;;;18.91;71.24
49463;BME280;35357;51.722;0.500;2022-08-01T03:50:51;101613.35;;;18.94;72.18
49463;BME280;35357;51.722;0.500;2022-08-01T03:53:22;101614.13;;;18.85;72.74
49463;BME280;35357;51.722;0.500;2022-08-01T03:55:50;101615.63;;;18.44;74.27
49463;BME280;35357;51.722;0.500;2022-08-01T03:58:20;101621.75;;;18.06;74.86
49463;BME280;35357;51.722;0.500;2022-08-01T04:00:48;101624.30;;;18.68;73.33
49463;BME280;35357;51.722;0.500;2022-08-01T04:03:16;101626.19;;;18.38;73.28
49463;BME280;35357;51.722;0.500;2022-08-01T04:05:44;101632.61;;;18.76;72.35
49463;BME280;35357;51.722;0.500;2022-08-01T04:08:12;101634.00;;;18.95;71.93
49463;BME280;35357;51.722;0.500;2022-08-01T04:10:39;101628.28;;;19.14;71.84
49463;BME280;35357;51.722;0.500;2022-08-01T04:13:07;101624.87;;;19.06;71.24
49463;BME280;35357;51.722;0.500;2022-08-01T04:15:35;101629.65;;;18.87;71.78
49463;BME280;35357;51.722;0.500;2022-08-01T04:18:02;101632.57;;;18.81;72.24
49463;BME280;35357;51.722;0.500;2022-08-01T04:20:30;101632.20;;;18.98;71.94
49463;BME280;35357;51.722;0.500;2022-08-01T04:22:58;101626.64;;;19.01;71.30
49463;BME280;35357;51.722;0.500;2022-08-01T04:25:32;101625.21;;;19.42;72.21
49463;BME280;35357;51.722;0.500;2022-08-01T04:28:01;101622.29;;;18.88;72.41
49463;BME280;35357;51.722;0.500;2022-08-01T04:30:32;101619.56;;;18.84;72.41
49463;BME280;35357;51.722;0.500;2022-08-01T04:33:01;101618.07;;;19.34;70.59
49463;BME280;35357;51.722;0.500;2022-08-01T04:35:31;101615.55;;;19.14;70.84
49463;BME280;35357;51.722;0.500;2022-08-01T04:38:01;101614.73;;;19.57;70.33
49463;BME280;35357;51.722;0.500;2022-08-01T04:40:29;101612.43;;;19.50;70.33
49463;BME280;35357;51.722;0.500;2022-08-01T04:42:57;101614.37;;;19.69;69.79
49463;BME280;35357;51.722;0.500;2022-08-01T04:45:26;101612.63;;;19.30;69.24
49463;BME280;35357;51.722;0.500;2022-08-01T04:47:54;101615.82;;;19.24;70.02
49463;BME280;35357;51.722;0.500;2022-08-01T04:50:23;101623.19;;;19.16;70.84
49463;BME280;35357;51.722;0.500;2022-08-01T04:52:50;101623.11;;;19.26;70.54
49463;BME280;35357;51.722;0.500;2022-08-01T04:55:17;101624.55;;;19.20;71.01
49463;BME280;35357;51.722;0.500;2022-08-01T04:57:46;101626.78;;;19.45;69.51
49463;BME280;35357;51.722;0.500;2022-08-01T05:00:15;101624.71;;;19.12;70.42
49463;BME280;35357;51.722;0.500;2022-08-01T05:02:42;101621.60;;;19.46;70.40
49463;BME280;35357;51.722;0.500;2022-08-01T05:05:10;101619.17;;;19.12;70.52
49463;BME280;35357;51.722;0.500;2022-08-01T05:07:37;101622.43;;;19.17;70.24
49463;BME280;35357;51.722;0.500;2022-08-01T05:10:06;101624.46;;;19.05;69.85
49463;BME280;35357;51.722;0.500;2022-08-01T05:12:33;101630.32;;;19.17;70.66
49463;BME280;35357;51.722;0.500;2022-08-01T05:15:02;101629.42;;;19.53;69.41
49463;BME280;35357;51.722;0.500;2022-08-01T05:17:29;101638.26;;;19.73;68.95
49463;BME280;35357;51.722;0.500;2022-08-01T05:19:57;101643.93;;;19.56;68.65
49463;BME280;35357;51.722;0.500;2022-08-01T05:22:25;101646.96;;;19.72;68.74
49463;BME280;35357;51.722;0.500;2022-08-01T05:24:52;101647.22;;;19.68;68.58
49463;BME280;35357;51.722;0.500;2022-08-01T05:27:20;101649.25;;;18.90;70.78
49463;BME280;35357;51.722;0.500;2022-08-01T05:29:47;101652.83;;;18.96;70.67
49463;BME280;35357;51.722;0.500;2022-08-01T05:32:15;101658.30;;;19.30;70.08
49463;BME280;35357;51.722;0.500;2022-08-01T05:34:43;101654.17;;;19.67;69.22
49463;BME280;35357;51.722;0.500;2022-08-01T05:37:10;101653.72;;;19.36;68.62
49463;BME280;35357;51.722;0.500;2022-08-01T05:39:38;101654.16;;;19.37;69.83
49463;BME280;35357;51.722;0.500;2022-08-01T05:42:06;101652.72;;;19.66;68.34
49463;BME280;35357;51.722;0.500;2022-08-01T05:44:33;101653.69;;;19.20;69.76
49463;BME280;35357;51.722;0.500;2022-08-01T05:47:00;101655.18;;;19.30;70.48
49463;BME280;35357;51.722;0.500;2022-08-01T05:49:28;101655.21;;;19.75;69.43
49463;BME280;35357;51.722;0.500;2022-08-01T05:51:55;101658.92;;;19.97;68.37
49463;BME280;35357;51.722;0.500;2022-08-01T05:54:23;101656.39;;;20.31;68.30
49463;BME280;35357;51.722;0.500;2022-08-01T05:56:51;101652.24;;;20.12;67.57
49463;BME280;35357;51.722;0.500;2022-08-01T05:59:19;101652.23;;;19.89;68.92
49463;BME280;35357;51.722;0.500;2022-08-01T06:01:46;101654.28;;;19.01;72.95
49463;BME280;35357;51.722;0.500;2022-08-01T06:04:14;101650.71;;;19.58;71.47
49463;BME280;35357;51.722;0.500;2022-08-01T06:06:41;101657.43;;;20.06;69.71
49463;BME280;35357;51.722;0.500;2022-08-01T06:09:08;101654.40;;;19.93;69.99
49463;BME280;35357;51.722;0.500;2022-08-01T06:11:35;101653.55;;;20.42;68.98
49463;BME280;35357;51.722;0.500;2022-08-01T06:14:04;101657.10;;;19.78;70.34
49463;BME280;35357;51.722;0.500;2022-08-01T06:16:31;101655.47;;;19.98;70.91
49463;BME280;35357;51.722;0.500;2022-08-01T06:18:58;101657.17;;;19.77;70.34
49463;BME280;35357;51.722;0.500;2022-08-01T06:21:26;101659.21;;;19.68;70.77
49463;BME280;35357;51.722;0.500;2022-08-01T06:23:53;101658.98;;;19.90;71.10
49463;BME280;35357;51.722;0.500;2022-08-01T06:26:21;101663.10;;;19.57;71.39
49463;BME280;35357;51.722;0.500;2022-08-01T06:28:49;101662.83;;;19.81;71.77
49463;BME280;35357;51.722;0.500;2022-08-01T06:31:16;101665.54;;;19.49;73.22
49463;BME280;35357;51.722;0.500;2022-08-01T06:33:44;101658.57;;;19.84;72.39
49463;BME280;35357;51.722;0.500;2022-08-01T06:36:11;101657.88;;;18.86;75.27
49463;BME280;35357;51.722;0.500;2022-08-01T06:38:39;101653.24;;;19.84;74.02
49463;BME280;35357;51.722;0.500;2022-08-01T06:41:06;101654.37;;;18.43;77.75
49463;BME280;35357;51.722;0.500;2022-08-01T06:43:33;101656.37;;;19.29;74.77
49463;BME280;35357;51.722;0.500;2022-08-01T06:46:00;101658.24;;;18.96;75.36
49463;BME280;35357;51.722;0.500;2022-08-01T06:48:28;101654.68;;;20.00;72.60
49463;BME280;35357;51.722;0.500;2022-08-01T06:50:56;101656.88;;;19.91;72.05
49463;BME280;35357;51.722;0.500;2022-08-01T06:53:23;101663.88;;;20.76;69.56
49463;BME280;35357;51.722;0.500;2022-08-01T06:55:50;101663.05;;;20.55;69.95
49463;BME280;35357;51.722;0.500;2022-08-01T06:58:17;101660.91;;;21.11;68.76
49463;BME280;35357;51.722;0.500;2022-08-01T07:00:44;101658.55;;;21.12;68.39
49463;BME280;35357;51.722;0.500;2022-08-01T07:03:11;101661.46;;;21.06;67.65
49463;BME280;35357;51.722;0.500;2022-08-01T07:05:38;101666.18;;;20.95;68.03
49463;BME280;35357;51.722;0.500;2022-08-01T07:08:06;101672.68;;;21.06;67.73
49463;BME280;35357;51.722;0.500;2022-08-01T07:10:33;101669.42;;;20.76;68.39
49463;BME280;35357;51.722;0.500;2022-08-01T07:13:01;101669.06;;;18.70;74.75
49463;BME280;35357;51.722;0.500;2022-08-01T07:15:29;101669.95;;;20.98;68.84
49463;BME280;35357;51.722;0.500;2022-08-01T07:17:55;101670.64;;;21.67;66.76
49463;BME280;35357;51.722;0.500;2022-08-01T07:20:22;101676.06;;;21.48;67.15
49463;BME280;35357;51.722;0.500;2022-08-01T07:22:50;101677.76;;;21.25;67.03
49463;BME280;35357;51.722;0.500;2022-08-01T07:25:17;101673.75;;;21.93;65.58
49463;BME280;35357;51.722;0.500;2022-08-01T07:27:45;101673.81;;;22.11;64.38
49463;BME280;35357;51.722;0.500;2022-08-01T07:30:13;101675.41;;;20.05;71.81
49463;BME280;35357;51.722;0.500;2022-08-01T07:32:40;101671.82;;;20.77;68.58
49463;BME280;35357;51.722;0.500;2022-08-01T07:35:09;101672.34;;;21.64;66.09
49463;BME280;35357;51.722;0.500;2022-08-01T07:37:35;101668.37;;;21.92;65.69
49463;BME280;35357;51.722;0.500;2022-08-01T07:40:05;101669.52;;;22.86;64.38
49463;BME280;35357;51.722;0.500;2022-08-01T07:42:32;101669.29;;;23.00;63.17
49463;BME280;35357;51.722;0.500;2022-08-01T07:44:59;101670.96;;;22.93;61.96
49463;BME280;35357;51.722;0.500;2022-08-01T07:47:26;101670.94;;;22.37;61.51
49463;BME280;35357;51.722;0.500;2022-08-01T07:49:59;101673.35;;;22.92;61.06
49463;BME280;35357;51.722;0.500;2022-08-01T07:52:27;101678.16;;;23.18;60.40
49463;BME280;35357;51.722;0.500;2022-08-01T07:54:54;101684.59;;;24.10;58.17
49463;BME280;35357;51.722;0.500;2022-08-01T07:57:22;101685.99;;;23.74;58.25
49463;BME280;35357;51.722;0.500;2022-08-01T07:59:50;101686.64;;;23.57;58.30
49463;BME280;35357;51.722;0.500;2022-08-01T08:02:17;101684.91;;;23.68;58.41
49463;BME280;35357;51.722;0.500;2022-08-01T08:04:45;101685.56;;;24.36;56.52
49463;BME280;35357;51.722;0.500;2022-08-01T08:07:13;101686.40;;;23.87;56.73
49463;BME280;35357;51.722;0.500;2022-08-01T08:09:40;101682.51;;;24.06;56.08
49463;BME280;35357;51.722;0.500;2022-08-01T08:12:08;101687.68;;;23.79;55.90
49463;BME280;35357;51.722;0.500;2022-08-01T08:14:36;101685.12;;;22.72;59.09
49463;BME280;35357;51.722;0.500;2022-08-01T08:17:03;101687.41;;;22.80;57.96
49463;BME280;35357;51.722;0.500;2022-08-01T08:19:30;101691.16;;;23.85;54.66
49463;BME280;35357;51.722;0.500;2022-08-01T08:21:58;101693.49;;;23.69;55.84
49463;BME280;35357;51.722;0.500;2022-08-01T08:24:26;101695.49;;;20.38;66.47
49463;BME280;35357;51.722;0.500;2022-08-01T08:26:56;101692.17;;;22.00;63.42
49463;BME280;35357;51.722;0.500;2022-08-01T08:29:25;101691.05;;;23.20;58.26
49463;BME280;35357;51.722;0.500;2022-08-01T08:31:53;101687.35;;;24.03;55.70
49463;BME280;35357;51.722;0.500;2022-08-01T08:34:20;101682.97;;;23.98;55.74
49463;BME280;35357;51.722;0.500;2022-08-01T08:36:48;101681.26;;;23.35;57.91
49463;BME280;35357;51.722;0.500;2022-08-01T08:39:16;101679.69;;;23.62;56.22
49463;BME280;35357;51.722;0.500;2022-08-01T08:41:43;101679.11;;;24.86;54.01
49463;BME280;35357;51.722;0.500;2022-08-01T08:44:10;101683.20;;;25.52;51.12
49463;BME280;35357;51.722;0.500;2022-08-01T08:46:41;101684.91;;;25.82;50.89
49463;BME280;35357;51.722;0.500;2022-08-01T08:49:09;101680.93;;;25.59;49.97
49463;BME280;35357;51.722;0.500;2022-08-01T08:51:39;101679.36;;;24.83;51.23
49463;BME280;35357;51.722;0.500;2022-08-01T08:54:11;101677.80;;;22.29;56.75
49463;BME280;35357;51.722;0.500;2022-08-01T08:56:38;101680.38;;;24.49;52.58
49463;BME280;35357;51.722;0.500;2022-08-01T08:59:06;101683.38;;;25.74;49.98
49463;BME280;35357;51.722;0.500;2022-08-01T09:01:34;101682.34;;;25.69;50.20
49463;BME280;35357;51.722;0.500;2022-08-01T09:04:01;101681.33;;;24.28;50.02
49463;BME280;35357;51.722;0.500;2022-08-01T09:06:30;101685.15;;;25.95;47.82
49463;BME280;35357;51.722;0.500;2022-08-01T09:08:58;101683.29;;;26.11;46.47
49463;BME280;35357;51.722;0.500;2022-08-01T09:11:25;101679.68;;;25.03;47.60
49463;BME280;35357;51.722;0.500;2022-08-01T09:14:05;101679.26;;;26.23;46.61
49463;BME280;35357;51.722;0.500;2022-08-01T09:16:33;101676.77;;;26.08;47.70
49463;BME280;35357;51.722;0.500;2022-08-01T09:19:11;101679.40;;;26.13;47.15
49463;BME280;35357;51.722;0.500;2022-08-01T09:21:40;101678.59;;;25.75;48.57
49463;BME280;35357;51.722;0.500;2022-08-01T09:24:16;101679.78;;;24.55;49.90
49463;BME280;35357;51.722;0.500;2022-08-01T09:26:44;101684.60;;;26.11;46.42
49463;BME280;35357;51.722;0.500;2022-08-01T09:29:18;101680.83;;;25.47;46.58
49463;BME280;35357;51.722;0.500;2022-08-01T09:31:46;101681.35;;;26.65;44.75
49463;BME280;35357;51.722;0.500;2022-08-01T09:34:14;101682.33;;;25.28;45.97
49463;BME280;35357;51.722;0.500;2022-08-01T09:36:50;101684.79;;;23.82;49.43
49463;BME280;35357;51.722;0.500;2022-08-01T09:39:19;101690.22;;;25.27;48.03
49463;BME280;35357;51.722;0.500;2022-08-01T09:41:47;101693.87;;;24.48;49.76
49463;BME280;35357;51.722;0.500;2022-08-01T09:44:17;101692.73;;;24.55;49.83
49463;BME280;35357;51.722;0.500;2022-08-01T09:46:53;101695.01;;;25.70;48.25
49463;BME280;35357;51.722;0.500;2022-08-01T09:49:30;101702.75;;;25.81;48.92
49463;BME280;35357;51.722;0.500;2022-08-01T09:51:58;101701.70;;;24.59;52.03
49463;BME280;35357;51.722;0.500;2022-08-01T09:54:29;101705.87;;;24.98;51.25
49463;BME280;35357;51.722;0.500;2022-08-01T09:57:08;101706.38;;;24.49;51.81
49463;BME280;35357;51.722;0.500;2022-08-01T09:59:36;101707.03;;;23.26;55.48
49463;BME280;35357;51.722;0.500;2022-08-01T10:02:05;101706.07;;;24.21;52.38
49463;BME280;35357;51.722;0.500;2022-08-01T10:04:33;101707.67;;;24.15;53.84
49463;BME280;35357;51.722;0.500;2022-08-01T10:07:05;101706.21;;;24.57;52.48
49463;BME280;35357;51.722;0.500;2022-08-01T10:09:34;101704.52;;;24.53;51.95
49463;BME280;35357;51.722;0.500;2022-08-01T10:12:01;101710.95;;;25.10;50.66
49463;BME280;35357;51.722;0.500;2022-08-01T10:14:29;101709.37;;;25.13;49.83
49463;BME280;35357;51.722;0.500;2022-08-01T10:16:59;101710.67;;;25.75;49.36
49463;BME280;35357;51.722;0.500;2022-08-01T10:19:29;101706.50;;;25.64;48.81
49463;BME280;35357;51.722;0.500;2022-08-01T10:21:57;101702.46;;;25.08;49.19
49463;BME280;35357;51.722;0.500;2022-08-01T10:24:26;101698.45;;;24.74;50.86
49463;BME280;35357;51.722;0.500;2022-08-01T10:26:59;101694.20;;;25.16;50.72
49463;BME280;35357;51.722;0.500;2022-08-01T10:29:28;101692.07;;;25.77;48.72
49463;BME280;35357;51.722;0.500;2022-08-01T10:31:59;101693.09;;;26.07;47.87
49463;BME280;35357;51.722;0.500;2022-08-01T10:34:27;101687.36;;;25.79;48.44
49463;BME280;35357;51.722;0.500;2022-08-01T10:36:57;101687.32;;;25.58;48.14
49463;BME280;35357;51.722;0.500;2022-08-01T10:39:24;101688.14;;;27.19;45.22
49463;BME280;35357;51.722;0.500;2022-08-01T10:41:52;101691.24;;;26.33;45.89
49463;BME280;35357;51.722;0.500;2022-08-01T10:44:19;101686.00;;;27.54;43.83
49463;BME280;35357;51.722;0.500;2022-08-01T10:46:49;101687.66;;;27.02;43.42
49463;BME280;35357;51.722;0.500;2022-08-01T10:49:22;101682.23;;;27.65;41.95
49463;BME280;35357;51.722;0.500;2022-08-01T10:51:50;101684.54;;;28.01;41.09
49463;BME280;35357;51.722;0.500;2022-08-01T10:54:18;101678.69;;;26.90;41.77
49463;BME280;35357;51.722;0.500;2022-08-01T10:56:47;101677.31;;;27.27;41.49
49463;BME280;35357;51.722;0.500;2022-08-01T10:59:20;101676.96;;;26.27;41.90
49463;BME280;35357;51.722;0.500;2022-08-01T11:01:56;101676.25;;;27.24;41.53
49463;BME280;35357;51.722;0.500;2022-08-01T11:04:35;101673.03;;;27.23;40.88
49463;BME280;35357;51.722;0.500;2022-08-01T11:07:13;101671.32;;;27.41;40.63
49463;BME280;35357;51.722;0.500;2022-08-01T11:09:44;101669.61;;;27.12;41.51
49463;BME280;35357;51.722;0.500;2022-08-01T11:12:14;101673.18;;;28.05;40.20
49463;BME280;35357;51.722;0.500;2022-08-01T11:15:47;101666.51;;;27.82;40.47
49463;BME280;35357;51.722;0.500;2022-08-01T11:18:30;101660.46;;;28.70;39.39
49463;BME280;35357;51.722;0.500;2022-08-01T11:21:00;101663.55;;;28.74;39.63
49463;BME280;35357;51.722;0.500;2022-08-01T11:23:29;101665.64;;;29.11;39.16
49463;BME280;35357;51.722;0.500;2022-08-01T11:26:14;101661.57;;;29.23;38.51
49463;BME280;35357;51.722;0.500;2022-08-01T11:28:44;101655.61;;;29.56;37.35
49463;BME280;35357;51.722;0.500;2022-08-01T11:31:28;101651.34;;;29.65;37.72
49463;BME280;35357;51.722;0.500;2022-08-01T11:33:56;101645.97;;;29.08;39.13
49463;BME280;35357;51.722;0.500;2022-08-01T11:36:24;101649.85;;;29.06;39.30
49463;BME280;35357;51.722;0.500;2022-08-01T11:39:23;101652.33;;;28.87;39.49
49463;BME280;35357;51.722;0.500;2022-08-01T11:41:51;101647.91;;;27.15;41.23
49463;BME280;35357;51.722;0.500;2022-08-01T11:44:22;101647.58;;;27.05;41.74
49463;BME280;35357;51.722;0.500;2022-08-01T11:46:53;101641.95;;;26.92;42.93
49463;BME280;35357;51.722;0.500;2022-08-01T11:49:27;101643.42;;;26.28;46.09
49463;BME280;35357;51.722;0.500;2022-08-01T11:51:58;101645.26;;;25.76;44.70
49463;BME280;35357;51.722;0.500;2022-08-01T11:54:28;101637.37;;;26.42;44.37
49463;BME280;35357;51.722;0.500;2022-08-01T11:56:56;101639.95;;;26.03;44.45
49463;BME280;35357;51.722;0.500;2022-08-01T11:59:24;101631.94;;;25.09;45.91
49463;BME280;35357;51.722;0.500;2022-08-01T12:01:51;101632.12;;;25.50;46.31
49463;BME280;35357;51.722;0.500;2022-08-01T12:04:19;101633.80;;;25.81;46.68
49463;BME280;35357;51.722;0.500;2022-08-01T12:06:46;101634.41;;;27.12;43.55
49463;BME280;35357;51.722;0.500;2022-08-01T12:09:17;101633.58;;;28.28;41.61
49463;BME280;35357;51.722;0.500;2022-08-01T12:11:45;101634.62;;;27.52;42.34
49463;BME280;35357;51.722;0.500;2022-08-01T12:14:17;101635.82;;;27.83;42.52
49463;BME280;35357;51.722;0.500;2022-08-01T12:16:51;101632.53;;;27.94;42.59
49463;BME280;35357;51.722;0.500;2022-08-01T12:19:20;101636.92;;;28.04;41.90
49463;BME280;35357;51.722;0.500;2022-08-01T12:22:07;101636.19;;;28.05;40.99
49463;BME280;35357;51.722;0.500;2022-08-01T12:24:34;101630.35;;;26.84;43.15
49463;BME280;35357;51.722;0.500;2022-08-01T12:27:03;101632.28;;;26.46;45.01
49463;BME280;35357;51.722;0.500;2022-08-01T12:29:33;101633.41;;;26.80;44.16
49463;BME280;35357;51.722;0.500;2022-08-01T12:32:00;101635.88;;;27.69;43.35
49463;BME280;35357;51.722;0.500;2022-08-01T12:34:29;101625.84;;;26.90;42.94
49463;BME280;35357;51.722;0.500;2022-08-01T12:36:59;101629.69;;;26.97;43.89
49463;BME280;35357;51.722;0.500;2022-08-01T12:39:32;101625.67;;;26.90;44.57
49463;BME280;35357;51.722;0.500;2022-08-01T12:42:00;101619.52;;;26.97;44.54
49463;BME280;35357;51.722;0.500;2022-08-01T12:44:29;101621.06;;;26.65;44.74
49463;BME280;35357;51.722;0.500;2022-08-01T12:46:57;101619.60;;;26.59;44.18
49463;BME280;35357;51.722;0.500;2022-08-01T12:49:24;101613.78;;;27.16;43.51
49463;BME280;35357;51.722;0.500;2022-08-01T12:51:52;101612.72;;;28.05;41.96
49463;BME280;35357;51.722;0.500;2022-08-01T12:54:19;101611.21;;;28.20;41.14
49463;BME280;35357;51.722;0.500;2022-08-01T12:56:47;101612.26;;;28.31;40.32
49463;BME280;35357;51.722;0.500;2022-08-01T12:59:22;101605.63;;;28.93;39.34
49463;BME280;35357;51.722;0.500;2022-08-01T13:01:50;101597.76;;;28.44;39.42